sensor_id;sensor_type;location;lat;lon;timestamp;pressure;altitude;pressure_sealevel;temperature;humidity
49377;BME280;35253;34.688;33.040;2023-02-28T00:01:31;101794.88;;;17.19;100.00
49377;BME280;35253;34.688;33.040;2023-02-28T00:03:57;101797.91;;;17.27;100.00
49377;BME280;35253;34.688;33.040;2023-02-28T00:06:22;101798.75;;;17.15;100.00
49377;BME280;35253;34.688;33.040;2023-02-28T00:08:49;101792.16;;;17.06;100.00
49377;BME280;35253;34.688;33.040;2023-02-28T00:11:15;101793.13;;;17.05;100.00
49377;BME280;35253;34.688;33.040;2023-02-28T00:13:41;101789.00;;;16.99;100.00
49377;BME280;35253;34.688;33.040;2023-02-28T00:16:11;101782.75;;;16.99;100.00
49377;BME280;35253;34.688;33.040;2023-02-28T00:18:38;101786.22;;;17.01;100.00
49377;BME280;35253;34.688;33.040;2023-02-28T00:21:03;101778.75;;;16.92;100.00
49377;BME280;35253;34.688;33.040;2023-02-28T00:23:29;101767.38;;;17.01;100.00
49377;BME280;35253;34.688;33.040;2023-02-28T00:25:55;101779.00;;;17.01;100.00
49377;BME280;35253;34.688;33.040;2023-02-28T00:28:20;101775.84;;;16.95;100.00
49377;BME280;35253;34.688;33.040;2023-02-28T00:30:46;101780.38;;;16.94;100.00
49377;BME280;35253;34.688;33.040;2023-02-28T00:33:12;101777.19;;;17.02;100.00
49377;BME280;35253;34.688;33.040;2023-02-28T00:35:37;101781.88;;;16.98;100.00
49377;BME280;35253;34.688;33.040;2023-02-28T00:38:03;101773.72;;;17.00;100.00
49377;BME280;35253;34.688;33.040;2023-02-28T00:40:28;101780.06;;;16.99;98.88
49377;BME280;35253;34.688;33.040;2023-02-28T00:42:54;101781.16;;;17.09;98.69
49377;BME280;35253;34.688;33.040;2023-02-28T00:45:20;101773.31;;;17.06;98.84
49377;BME280;35253;34.688;33.040;2023-02-28T00:47:45;101781.16;;;16.96;98.57
49377;BME280;35253;34.688;33.040;2023-02-28T00:50:14;101774.56;;;17.00;99.10
49377;BME280;35253;34.688;33.040;2023-02-28T00:52:40;101768.94;;;16.91;99.00
49377;BME280;35253;34.688;33.040;2023-02-28T00:55:05;101777.47;;;16.85;99.06
49377;BME280;35253;34.688;33.040;2023-02-28T00:57:31;101770.13;;;16.87;99.29
49377;BME280;35253;34.688;33.040;2023-02-28T00:59:56;101777.34;;;16.86;98.22
49377;BME280;35253;34.688;33.040;2023-02-28T01:02:22;101770.28;;;16.98;96.47
49377;BME280;35253;34.688;33.040;2023-02-28T01:04:47;101763.81;;;17.00;96.21
49377;BME280;35253;34.688;33.040;2023-02-28T01:07:13;101762.28;;;16.96;96.64
49377;BME280;35253;34.688;33.040;2023-02-28T01:09:39;101760.78;;;17.05;95.94
49377;BME280;35253;34.688;33.040;2023-02-28T01:12:06;101758.66;;;17.10;94.84
49377;BME280;35253;34.688;33.040;2023-02-28T01:14:31;101755.41;;;17.18;95.28
49377;BME280;35253;34.688;33.040;2023-02-28T01:16:57;101758.66;;;17.23;95.14
49377;BME280;35253;34.688;33.040;2023-02-28T01:19:22;101753.16;;;17.24;94.81
49377;BME280;35253;34.688;33.040;2023-02-28T01:21:48;101752.16;;;17.25;94.77
49377;BME280;35253;34.688;33.040;2023-02-28T01:24:13;101756.38;;;17.17;94.67
49377;BME280;35253;34.688;33.040;2023-02-28T01:26:39;101759.53;;;17.23;94.57
49377;BME280;35253;34.688;33.040;2023-02-28T01:29:04;101757.47;;;17.27;93.58
49377;BME280;35253;34.688;33.040;2023-02-28T01:31:29;101747.22;;;17.19;93.17
49377;BME280;35253;34.688;33.040;2023-02-28T01:33:55;101748.06;;;17.07;94.46
49377;BME280;35253;34.688;33.040;2023-02-28T01:36:21;101751.41;;;16.98;95.40
49377;BME280;35253;34.688;33.040;2023-02-28T01:38:47;101747.94;;;16.96;96.55
49377;BME280;35253;34.688;33.040;2023-02-28T01:41:15;101750.88;;;16.93;99.03
49377;BME280;35253;34.688;33.040;2023-02-28T01:46:09;101762.03;;;16.87;100.00
49377;BME280;35253;34.688;33.040;2023-02-28T01:48:36;101755.38;;;16.80;100.00
49377;BME280;35253;34.688;33.040;2023-02-28T01:51:03;101761.16;;;16.74;100.00
49377;BME280;35253;34.688;33.040;2023-02-28T01:53:34;101746.94;;;16.72;100.00
49377;BME280;35253;34.688;33.040;2023-02-28T01:56:01;101756.38;;;16.64;100.00
49377;BME280;35253;34.688;33.040;2023-02-28T01:58:28;101758.34;;;16.62;100.00
49377;BME280;35253;34.688;33.040;2023-02-28T02:00:53;101754.66;;;16.63;100.00
49377;BME280;35253;34.688;33.040;2023-02-28T02:03:19;101758.34;;;16.62;100.00
49377;BME280;35253;34.688;33.040;2023-02-28T02:05:45;101755.81;;;16.59;100.00
49377;BME280;35253;34.688;33.040;2023-02-28T02:08:17;101762.34;;;16.55;100.00
49377;BME280;35253;34.688;33.040;2023-02-28T02:11:18;101763.44;;;16.53;100.00
49377;BME280;35253;34.688;33.040;2023-02-28T02:26:49;101751.22;;;16.47;100.00
49377;BME280;35253;34.688;33.040;2023-02-28T02:34:56;101751.59;;;16.55;100.00
49377;BME280;35253;34.688;33.040;2023-02-28T02:42:16;101751.50;;;16.57;100.00
49377;BME280;35253;34.688;33.040;2023-02-28T02:44:46;101760.25;;;16.60;100.00
49377;BME280;35253;34.688;33.040;2023-02-28T02:47:14;101759.50;;;16.58;100.00
49377;BME280;35253;34.688;33.040;2023-02-28T02:49:42;101760.47;;;16.57;100.00
49377;BME280;35253;34.688;33.040;2023-02-28T02:52:10;101764.09;;;16.56;100.00
49377;BME280;35253;34.688;33.040;2023-02-28T02:54:37;101765.63;;;16.60;100.00
49377;BME280;35253;34.688;33.040;2023-02-28T02:57:13;101758.69;;;16.56;100.00
49377;BME280;35253;34.688;33.040;2023-02-28T02:59:42;101764.31;;;16.53;100.00
49377;BME280;35253;34.688;33.040;2023-02-28T03:02:08;101763.22;;;16.56;100.00
49377;BME280;35253;34.688;33.040;2023-02-28T03:04:38;101758.13;;;16.65;100.00
49377;BME280;35253;34.688;33.040;2023-02-28T03:07:07;101760.72;;;16.67;100.00
49377;BME280;35253;34.688;33.040;2023-02-28T03:09:32;101762.63;;;16.65;100.00
49377;BME280;35253;34.688;33.040;2023-02-28T03:11:58;101760.03;;;16.63;100.00
49377;BME280;35253;34.688;33.040;2023-02-28T03:25:23;101750.94;;;16.52;100.00
49377;BME280;35253;34.688;33.040;2023-02-28T03:27:23;101748.03;;;16.55;100.00
49377;BME280;35253;34.688;33.040;2023-02-28T03:29:58;101746.88;;;16.59;100.00
49377;BME280;35253;34.688;33.040;2023-02-28T03:32:28;101745.06;;;16.59;100.00
49377;BME280;35253;34.688;33.040;2023-02-28T03:37:39;101748.09;;;16.67;100.00
49377;BME280;35253;34.688;33.040;2023-02-28T03:40:13;101747.34;;;16.65;100.00
49377;BME280;35253;34.688;33.040;2023-02-28T03:42:40;101752.72;;;16.65;100.00
49377;BME280;35253;34.688;33.040;2023-02-28T03:45:11;101749.94;;;16.67;100.00
49377;BME280;35253;34.688;33.040;2023-02-28T03:47:41;101754.91;;;16.73;100.00
49377;BME280;35253;34.688;33.040;2023-02-28T03:50:11;101756.53;;;16.76;100.00
49377;BME280;35253;34.688;33.040;2023-02-28T03:52:40;101763.09;;;16.72;100.00
49377;BME280;35253;34.688;33.040;2023-02-28T03:55:08;101763.09;;;16.72;100.00
49377;BME280;35253;34.688;33.040;2023-02-28T03:57:53;101775.31;;;16.63;100.00
49377;BME280;35253;34.688;33.040;2023-02-28T04:00:26;101768.13;;;16.63;100.00
49377;BME280;35253;34.688;33.040;2023-02-28T04:02:53;101768.81;;;16.67;100.00
49377;BME280;35253;34.688;33.040;2023-02-28T04:05:19;101766.19;;;16.65;100.00
49377;BME280;35253;34.688;33.040;2023-02-28T04:07:45;101764.16;;;16.69;100.00
49377;BME280;35253;34.688;33.040;2023-02-28T04:10:11;101763.28;;;16.68;100.00
49377;BME280;35253;34.688;33.040;2023-02-28T04:12:37;101765.03;;;16.70;100.00
49377;BME280;35253;34.688;33.040;2023-02-28T04:15:03;101773.75;;;16.73;100.00
49377;BME280;35253;34.688;33.040;2023-02-28T04:17:29;101765.81;;;16.72;100.00
49377;BME280;35253;34.688;33.040;2023-02-28T04:19:54;101771.28;;;16.70;100.00
49377;BME280;35253;34.688;33.040;2023-02-28T04:22:22;101771.72;;;16.77;100.00
49377;BME280;35253;34.688;33.040;2023-02-28T04:24:50;101771.72;;;16.77;100.00
49377;BME280;35253;34.688;33.040;2023-02-28T04:27:16;101774.63;;;16.74;100.00
49377;BME280;35253;34.688;33.040;2023-02-28T04:29:41;101772.47;;;16.79;100.00
49377;BME280;35253;34.688;33.040;2023-02-28T04:32:09;101774.31;;;16.78;100.00
49377;BME280;35253;34.688;33.040;2023-02-28T04:34:35;101773.44;;;16.78;100.00
49377;BME280;35253;34.688;33.040;2023-02-28T04:37:01;101775.19;;;16.79;100.00
49377;BME280;35253;34.688;33.040;2023-02-28T04:39:26;101775.19;;;16.79;100.00
49377;BME280;35253;34.688;33.040;2023-02-28T04:41:52;101776.47;;;16.86;100.00
49377;BME280;35253;34.688;33.040;2023-02-28T04:44:17;101786.19;;;16.88;100.00
49377;BME280;35253;34.688;33.040;2023-02-28T04:46:43;101782.97;;;16.96;98.92
49377;BME280;35253;34.688;33.040;2023-02-28T04:49:09;101779.56;;;17.06;98.54
49377;BME280;35253;34.688;33.040;2023-02-28T04:51:35;101784.19;;;17.17;97.52
49377;BME280;35253;34.688;33.040;2023-02-28T04:54:01;101790.22;;;17.21;96.52
49377;BME280;35253;34.688;33.040;2023-02-28T04:56:26;101789.72;;;17.28;96.22
49377;BME280;35253;34.688;33.040;2023-02-28T04:58:52;101791.88;;;17.36;95.71
49377;BME280;35253;34.688;33.040;2023-02-28T05:01:20;101796.63;;;17.45;95.15
49377;BME280;35253;34.688;33.040;2023-02-28T05:03:46;101787.25;;;17.50;94.61
49377;BME280;35253;34.688;33.040;2023-02-28T05:06:12;101793.16;;;17.55;93.75
49377;BME280;35253;34.688;33.040;2023-02-28T05:08:38;101802.38;;;17.66;94.22
49377;BME280;35253;34.688;33.040;2023-02-28T05:11:04;101799.66;;;17.66;95.16
49377;BME280;35253;34.688;33.040;2023-02-28T05:13:31;101800.94;;;17.73;95.56
49377;BME280;35253;34.688;33.040;2023-02-28T05:15:56;101794.06;;;17.81;95.10
49377;BME280;35253;34.688;33.040;2023-02-28T05:18:22;101796.94;;;17.91;94.19
49377;BME280;35253;34.688;33.040;2023-02-28T05:20:47;101801.91;;;17.97;93.32
49377;BME280;35253;34.688;33.040;2023-02-28T05:23:13;101797.78;;;18.04;93.26
49377;BME280;35253;34.688;33.040;2023-02-28T05:25:39;101800.03;;;18.10;92.48
49377;BME280;35253;34.688;33.040;2023-02-28T05:28:05;101800.34;;;18.18;91.89
49377;BME280;35253;34.688;33.040;2023-02-28T05:30:31;101797.59;;;18.31;90.74
49377;BME280;35253;34.688;33.040;2023-02-28T05:32:57;101807.84;;;18.38;90.04
49377;BME280;35253;34.688;33.040;2023-02-28T05:35:23;101803.38;;;18.50;88.96
49377;BME280;35253;34.688;33.040;2023-02-28T05:37:49;101804.66;;;18.57;87.99
49377;BME280;35253;34.688;33.040;2023-02-28T05:40:14;101805.59;;;18.69;87.82
49377;BME280;35253;34.688;33.040;2023-02-28T05:42:40;101804.66;;;18.81;86.46
49377;BME280;35253;34.688;33.040;2023-02-28T05:45:06;101805.47;;;18.94;85.72
49377;BME280;35253;34.688;33.040;2023-02-28T05:47:32;101800.56;;;18.99;86.21
49377;BME280;35253;34.688;33.040;2023-02-28T05:49:58;101803.53;;;19.07;86.09
49377;BME280;35253;34.688;33.040;2023-02-28T05:52:23;101806.25;;;19.18;85.01
49377;BME280;35253;34.688;33.040;2023-02-28T05:54:48;101805.44;;;19.29;84.67
49377;BME280;35253;34.688;33.040;2023-02-28T05:57:14;101811.72;;;19.41;83.88
49377;BME280;35253;34.688;33.040;2023-02-28T05:59:40;101810.94;;;19.51;83.57
49377;BME280;35253;34.688;33.040;2023-02-28T06:02:06;101807.63;;;19.59;83.21
49377;BME280;35253;34.688;33.040;2023-02-28T06:04:31;101811.81;;;19.63;83.27
49377;BME280;35253;34.688;33.040;2023-02-28T06:06:57;101815.63;;;19.71;82.95
49377;BME280;35253;34.688;33.040;2023-02-28T06:09:22;101813.81;;;19.83;82.41
49377;BME280;35253;34.688;33.040;2023-02-28T06:11:48;101815.28;;;19.87;82.52
49377;BME280;35253;34.688;33.040;2023-02-28T06:14:14;101820.19;;;19.93;82.12
49377;BME280;35253;34.688;33.040;2023-02-28T06:16:40;101822.91;;;20.04;80.87
49377;BME280;35253;34.688;33.040;2023-02-28T06:19:06;101822.38;;;20.10;81.02
49377;BME280;35253;34.688;33.040;2023-02-28T06:21:31;101830.53;;;20.21;80.84
49377;BME280;35253;34.688;33.040;2023-02-28T06:23:57;101839.25;;;20.36;80.57
49377;BME280;35253;34.688;33.040;2023-02-28T06:26:23;101836.81;;;20.44;79.97
49377;BME280;35253;34.688;33.040;2023-02-28T06:28:49;101857.09;;;20.50;79.84
49377;BME280;35253;34.688;33.040;2023-02-28T06:31:15;101850.91;;;20.59;79.36
49377;BME280;35253;34.688;33.040;2023-02-28T06:33:42;101853.78;;;20.57;80.00
49377;BME280;35253;34.688;33.040;2023-02-28T06:36:08;101860.50;;;20.63;80.89
49377;BME280;35253;34.688;33.040;2023-02-28T06:38:34;101866.91;;;20.73;82.06
49377;BME280;35253;34.688;33.040;2023-02-28T06:41:00;101863.69;;;20.79;81.89
49377;BME280;35253;34.688;33.040;2023-02-28T06:43:27;101861.59;;;20.83;82.04
49377;BME280;35253;34.688;33.040;2023-02-28T06:45:57;101864.63;;;20.89;81.78
49377;BME280;35253;34.688;33.040;2023-02-28T06:48:23;101860.94;;;20.90;81.11
49377;BME280;35253;34.688;33.040;2023-02-28T06:50:49;101863.38;;;20.93;80.03
49377;BME280;35253;34.688;33.040;2023-02-28T06:53:14;101866.47;;;21.00;78.67
49377;BME280;35253;34.688;33.040;2023-02-28T06:55:40;101867.06;;;21.03;79.36
49377;BME280;35253;34.688;33.040;2023-02-28T06:58:06;101851.13;;;21.10;80.95
49377;BME280;35253;34.688;33.040;2023-02-28T07:00:40;101857.44;;;21.10;85.23
49377;BME280;35253;34.688;33.040;2023-02-28T07:03:06;101851.25;;;21.08;90.06
49377;BME280;35253;34.688;33.040;2023-02-28T07:05:31;101840.91;;;21.13;92.16
49377;BME280;35253;34.688;33.040;2023-02-28T07:07:57;101846.06;;;21.17;93.30
49377;BME280;35253;34.688;33.040;2023-02-28T07:10:22;101839.66;;;21.18;94.02
49377;BME280;35253;34.688;33.040;2023-02-28T07:12:48;101843.72;;;21.23;95.17
49377;BME280;35253;34.688;33.040;2023-02-28T07:15:13;101836.16;;;21.27;95.83
49377;BME280;35253;34.688;33.040;2023-02-28T07:17:39;101841.03;;;21.33;95.40
49377;BME280;35253;34.688;33.040;2023-02-28T07:20:04;101841.66;;;21.36;96.17
49377;BME280;35253;34.688;33.040;2023-02-28T07:22:30;101839.66;;;21.38;96.12
49377;BME280;35253;34.688;33.040;2023-02-28T07:24:55;101838.00;;;21.47;95.90
49377;BME280;35253;34.688;33.040;2023-02-28T07:27:21;101824.19;;;21.50;93.35
49377;BME280;35253;34.688;33.040;2023-02-28T07:29:51;101829.19;;;21.54;92.28
49377;BME280;35253;34.688;33.040;2023-02-28T07:32:17;101829.41;;;21.63;92.54
49377;BME280;35253;34.688;33.040;2023-02-28T07:34:43;101833.31;;;21.70;90.26
49377;BME280;35253;34.688;33.040;2023-02-28T07:37:09;101837.16;;;21.67;88.23
49377;BME280;35253;34.688;33.040;2023-02-28T07:39:34;101829.91;;;21.77;88.01
49377;BME280;35253;34.688;33.040;2023-02-28T07:42:00;101831.09;;;21.84;87.88
49377;BME280;35253;34.688;33.040;2023-02-28T07:44:28;101838.84;;;21.89;86.32
49377;BME280;35253;34.688;33.040;2023-02-28T07:46:54;101826.06;;;22.00;83.13
49377;BME280;35253;34.688;33.040;2023-02-28T07:49:20;101816.63;;;22.05;78.84
49377;BME280;35253;34.688;33.040;2023-02-28T07:51:45;101822.97;;;22.15;78.85
49377;BME280;35253;34.688;33.040;2023-02-28T07:54:11;101825.56;;;22.26;76.64
49377;BME280;35253;34.688;33.040;2023-02-28T07:56:36;101824.56;;;22.27;76.35
49377;BME280;35253;34.688;33.040;2023-02-28T07:59:02;101825.59;;;22.35;75.39
49377;BME280;35253;34.688;33.040;2023-02-28T08:01:28;101812.63;;;22.48;74.19
49377;BME280;35253;34.688;33.040;2023-02-28T08:03:53;101817.50;;;22.55;73.96
49377;BME280;35253;34.688;33.040;2023-02-28T08:06:21;101809.03;;;22.48;75.39
49377;BME280;35253;34.688;33.040;2023-02-28T08:08:47;101808.03;;;22.49;76.84
49377;BME280;35253;34.688;33.040;2023-02-28T08:11:13;101803.88;;;22.45;79.74
49377;BME280;35253;34.688;33.040;2023-02-28T08:13:38;101802.16;;;22.44;80.74
49377;BME280;35253;34.688;33.040;2023-02-28T08:16:04;101794.44;;;22.49;80.07
49377;BME280;35253;34.688;33.040;2023-02-28T08:18:29;101802.31;;;22.52;79.93
49377;BME280;35253;34.688;33.040;2023-02-28T08:20:55;101800.03;;;22.57;81.98
49377;BME280;35253;34.688;33.040;2023-02-28T08:23:21;101792.19;;;22.64;82.55
49377;BME280;35253;34.688;33.040;2023-02-28T08:25:53;101794.31;;;22.60;82.77
49377;BME280;35253;34.688;33.040;2023-02-28T08:28:19;101798.19;;;22.67;83.04
49377;BME280;35253;34.688;33.040;2023-02-28T08:30:45;101789.06;;;22.68;84.45
49377;BME280;35253;34.688;33.040;2023-02-28T08:33:10;101784.78;;;22.75;87.74
49377;BME280;35253;34.688;33.040;2023-02-28T08:35:36;101793.94;;;22.74;90.21
49377;BME280;35253;34.688;33.040;2023-02-28T08:38:02;101781.19;;;22.75;92.27
49377;BME280;35253;34.688;33.040;2023-02-28T08:40:28;101784.78;;;22.75;95.92
49377;BME280;35253;34.688;33.040;2023-02-28T08:42:53;101785.47;;;22.77;95.90
49377;BME280;35253;34.688;33.040;2023-02-28T08:45:18;101776.78;;;22.83;95.21
49377;BME280;35253;34.688;33.040;2023-02-28T08:47:44;101771.63;;;22.80;94.77
49377;BME280;35253;34.688;33.040;2023-02-28T08:50:10;101771.88;;;22.77;95.85
49377;BME280;35253;34.688;33.040;2023-02-28T08:52:35;101766.31;;;22.79;97.76
49377;BME280;35253;34.688;33.040;2023-02-28T08:55:01;101771.63;;;22.80;98.65
49377;BME280;35253;34.688;33.040;2023-02-28T08:57:26;101777.06;;;22.80;100.00
49377;BME280;35253;34.688;33.040;2023-02-28T08:59:52;101772.47;;;22.71;100.00
49377;BME280;35253;34.688;33.040;2023-02-28T09:02:18;101775.28;;;22.60;100.00
49377;BME280;35253;34.688;33.040;2023-02-28T09:04:43;101765.84;;;22.64;100.00
49377;BME280;35253;34.688;33.040;2023-02-28T09:07:12;101772.34;;;22.73;100.00
49377;BME280;35253;34.688;33.040;2023-02-28T09:09:37;101765.03;;;22.73;100.00
49377;BME280;35253;34.688;33.040;2023-02-28T09:12:19;101765.31;;;22.89;100.00
49377;BME280;35253;34.688;33.040;2023-02-28T09:14:44;101763.31;;;22.91;100.00
49377;BME280;35253;34.688;33.040;2023-02-28T09:17:10;101761.59;;;22.90;99.88
49377;BME280;35253;34.688;33.040;2023-02-28T09:19:36;101757.31;;;22.88;97.08
49377;BME280;35253;34.688;33.040;2023-02-28T09:22:02;101763.31;;;22.91;98.02
49377;BME280;35253;34.688;33.040;2023-02-28T09:24:27;101755.75;;;22.85;99.40
49377;BME280;35253;34.688;33.040;2023-02-28T09:26:53;101771.34;;;22.93;99.07
49377;BME280;35253;34.688;33.040;2023-02-28T09:29:18;101753.59;;;22.99;99.64
49377;BME280;35253;34.688;33.040;2023-02-28T09:31:44;101749.56;;;23.03;99.14
49377;BME280;35253;34.688;33.040;2023-02-28T09:34:09;101747.53;;;23.05;95.53
49377;BME280;35253;34.688;33.040;2023-02-28T09:36:35;101743.09;;;23.04;92.92
49377;BME280;35253;34.688;33.040;2023-02-28T09:39:02;101728.34;;;23.16;88.40
49377;BME280;35253;34.688;33.040;2023-02-28T09:41:28;101717.59;;;23.24;84.42
49377;BME280;35253;34.688;33.040;2023-02-28T09:44:00;101725.44;;;23.27;88.24
49377;BME280;35253;34.688;33.040;2023-02-28T09:46:38;101715.72;;;23.34;92.08
49377;BME280;35253;34.688;33.040;2023-02-28T09:49:17;101718.53;;;23.42;95.37
49377;BME280;35253;34.688;33.040;2023-02-28T09:51:51;101714.53;;;23.46;93.73
49377;BME280;35253;34.688;33.040;2023-02-28T09:54:21;101714.09;;;23.41;93.52
49377;BME280;35253;34.688;33.040;2023-02-28T09:56:49;101706.38;;;23.46;94.33
49377;BME280;35253;34.688;33.040;2023-02-28T09:59:21;101705.31;;;23.57;93.57
49377;BME280;35253;34.688;33.040;2023-02-28T10:02:03;101699.88;;;23.57;91.63
49377;BME280;35253;34.688;33.040;2023-02-28T10:07:52;101681.44;;;23.78;85.95
49377;BME280;35253;34.688;33.040;2023-02-28T10:09:52;101684.00;;;23.79;89.81
49377;BME280;35253;34.688;33.040;2023-02-28T10:12:19;101680.28;;;23.80;93.57
49377;BME280;35253;34.688;33.040;2023-02-28T10:14:45;101684.25;;;23.86;94.58
49377;BME280;35253;34.688;33.040;2023-02-28T10:17:12;101682.78;;;23.92;94.82
49377;BME280;35253;34.688;33.040;2023-02-28T10:19:44;101682.44;;;24.04;92.82
49377;BME280;35253;34.688;33.040;2023-02-28T10:22:17;101680.66;;;24.13;91.62
49377;BME280;35253;34.688;33.040;2023-02-28T10:24:45;101681.56;;;24.04;87.38
49377;BME280;35253;34.688;33.040;2023-02-28T10:27:15;101670.34;;;24.07;85.07
49377;BME280;35253;34.688;33.040;2023-02-28T10:29:48;101661.78;;;24.02;83.30
49377;BME280;35253;34.688;33.040;2023-02-28T10:32:15;101648.88;;;24.04;79.58
49377;BME280;35253;34.688;33.040;2023-02-28T10:34:43;101645.06;;;24.14;78.08
49377;BME280;35253;34.688;33.040;2023-02-28T10:37:10;101645.88;;;24.42;78.67
49377;BME280;35253;34.688;33.040;2023-02-28T10:42:02;101636.25;;;24.74;79.71
49377;BME280;35253;34.688;33.040;2023-02-28T10:44:28;101632.72;;;24.81;79.44
49377;BME280;35253;34.688;33.040;2023-02-28T10:46:56;101638.72;;;25.10;78.96
49377;BME280;35253;34.688;33.040;2023-02-28T10:49:23;101640.00;;;25.24;76.24
49377;BME280;35253;34.688;33.040;2023-02-28T10:51:54;101628.81;;;25.35;73.05
49377;BME280;35253;34.688;33.040;2023-02-28T10:57:16;101622.19;;;25.80;73.15
49377;BME280;35253;34.688;33.040;2023-02-28T10:59:42;101621.38;;;26.03;73.51
49377;BME280;35253;34.688;33.040;2023-02-28T11:04:52;101618.19;;;26.57;71.41
49377;BME280;35253;34.688;33.040;2023-02-28T11:07:19;101609.63;;;26.84;69.12
49377;BME280;35253;34.688;33.040;2023-02-28T11:09:45;101610.66;;;27.07;65.78
49377;BME280;35253;34.688;33.040;2023-02-28T11:12:23;101598.06;;;27.29;63.78
49377;BME280;35253;34.688;33.040;2023-02-28T11:14:52;101596.50;;;27.34;59.80
49377;BME280;35253;34.688;33.040;2023-02-28T11:17:22;101596.00;;;27.31;58.40
49377;BME280;35253;34.688;33.040;2023-02-28T11:19:50;101600.81;;;27.21;55.68
49377;BME280;35253;34.688;33.040;2023-02-28T11:22:20;101596.47;;;27.51;54.14
49377;BME280;35253;34.688;33.040;2023-02-28T11:24:51;101596.22;;;27.68;54.79
49377;BME280;35253;34.688;33.040;2023-02-28T11:29:56;101588.50;;;27.95;55.21
49377;BME280;35253;34.688;33.040;2023-02-28T11:32:22;101584.72;;;27.96;55.10
49377;BME280;35253;34.688;33.040;2023-02-28T11:37:50;101578.13;;;28.05;51.03
49377;BME280;35253;34.688;33.040;2023-02-28T11:40:16;101569.50;;;28.39;51.36
49377;BME280;35253;34.688;33.040;2023-02-28T11:45:28;101582.03;;;28.56;48.97
49377;BME280;35253;34.688;33.040;2023-02-28T11:54:06;101578.81;;;28.67;47.53
49377;BME280;35253;34.688;33.040;2023-02-28T11:59:05;101568.63;;;28.61;45.86
49377;BME280;35253;34.688;33.040;2023-02-28T12:04:25;101582.75;;;28.04;47.28
49377;BME280;35253;34.688;33.040;2023-02-28T12:22:48;101568.03;;;28.51;50.83
49377;BME280;35253;34.688;33.040;2023-02-28T12:27:49;101571.22;;;28.77;50.78
49377;BME280;35253;34.688;33.040;2023-02-28T12:30:28;101566.31;;;28.87;50.32
49377;BME280;35253;34.688;33.040;2023-02-28T12:32:57;101570.75;;;28.88;50.87
49377;BME280;35253;34.688;33.040;2023-02-28T12:35:37;101557.78;;;28.82;50.01
49377;BME280;35253;34.688;33.040;2023-02-28T12:40:34;101555.72;;;28.47;52.07
49377;BME280;35253;34.688;33.040;2023-02-28T12:43:08;101559.63;;;28.07;54.49
49377;BME280;35253;34.688;33.040;2023-02-28T12:45:40;101551.75;;;27.81;54.83
49377;BME280;35253;34.688;33.040;2023-02-28T12:48:07;101553.78;;;28.10;53.87
49377;BME280;35253;34.688;33.040;2023-02-28T12:50:33;101554.38;;;27.97;51.01
49377;BME280;35253;34.688;33.040;2023-02-28T13:00:38;101541.94;;;28.32;49.05
49377;BME280;35253;34.688;33.040;2023-02-28T13:03:18;101537.69;;;28.30;49.09
49377;BME280;35253;34.688;33.040;2023-02-28T13:10:44;101535.13;;;27.83;52.60
49377;BME280;35253;34.688;33.040;2023-02-28T13:13:14;101534.00;;;27.69;53.86
49377;BME280;35253;34.688;33.040;2023-02-28T13:15:40;101529.69;;;27.74;54.28
49377;BME280;35253;34.688;33.040;2023-02-28T13:18:25;101531.59;;;27.74;53.85
49377;BME280;35253;34.688;33.040;2023-02-28T13:20:51;101529.53;;;27.76;53.92
49377;BME280;35253;34.688;33.040;2023-02-28T13:26:00;101517.47;;;27.62;54.06
49377;BME280;35253;34.688;33.040;2023-02-28T13:31:12;101517.41;;;27.01;54.64
49377;BME280;35253;34.688;33.040;2023-02-28T13:38:51;101508.13;;;27.49;56.28
49377;BME280;35253;34.688;33.040;2023-02-28T13:44:00;101507.59;;;27.53;62.95
49377;BME280;35253;34.688;33.040;2023-02-28T13:46:27;101496.56;;;27.30;64.26
49377;BME280;35253;34.688;33.040;2023-02-28T13:48:52;101498.50;;;27.53;65.60
49377;BME280;35253;34.688;33.040;2023-02-28T13:57:11;101486.63;;;27.29;66.03
49377;BME280;35253;34.688;33.040;2023-02-28T13:59:49;101487.91;;;27.19;66.45
49377;BME280;35253;34.688;33.040;2023-02-28T14:07:25;101479.41;;;26.42;64.85
49377;BME280;35253;34.688;33.040;2023-02-28T14:09:55;101475.34;;;26.30;66.67
49377;BME280;35253;34.688;33.040;2023-02-28T14:17:53;101478.75;;;25.92;70.23
49377;BME280;35253;34.688;33.040;2023-02-28T14:20:20;101465.41;;;25.65;72.67
49377;BME280;35253;34.688;33.040;2023-02-28T14:22:54;101464.22;;;25.59;73.70
49377;BME280;35253;34.688;33.040;2023-02-28T14:25:36;101459.84;;;25.24;77.70
49377;BME280;35253;34.688;33.040;2023-02-28T14:28:14;101459.34;;;25.21;76.46
49377;BME280;35253;34.688;33.040;2023-02-28T14:31:17;101466.84;;;24.85;77.82
49377;BME280;35253;34.688;33.040;2023-02-28T14:36:39;101468.19;;;24.81;79.98
49377;BME280;35253;34.688;33.040;2023-02-28T14:39:07;101468.97;;;24.65;80.79
49377;BME280;35253;34.688;33.040;2023-02-28T14:41:34;101471.03;;;24.37;80.35
49377;BME280;35253;34.688;33.040;2023-02-28T14:44:17;101472.53;;;24.14;80.17
49377;BME280;35253;34.688;33.040;2023-02-28T14:46:43;101468.63;;;23.91;80.97
49377;BME280;35253;34.688;33.040;2023-02-28T14:49:20;101470.56;;;23.80;80.86
49377;BME280;35253;34.688;33.040;2023-02-28T14:51:47;101467.44;;;23.75;81.68
49377;BME280;35253;34.688;33.040;2023-02-28T14:54:15;101463.34;;;23.71;81.21
49377;BME280;35253;34.688;33.040;2023-02-28T14:56:41;101466.44;;;23.59;83.33